sensor_id;sensor_type;location;lat;lon;timestamp;temperature;humidity
18898;DHT22;9581;49.484;8.556;2023-08-17T00:01:44;20.40;99.90
18898;DHT22;9581;49.484;8.556;2023-08-17T00:04:11;20.40;99.90
18898;DHT22;9581;49.484;8.556;2023-08-17T00:06:38;20.40;99.90
18898;DHT22;9581;49.484;8.556;2023-08-17T00:09:05;20.40;99.90
18898;DHT22;9581;49.484;8.556;2023-08-17T00:11:32;20.40;99.90
18898;DHT22;9581;49.484;8.556;2023-08-17T00:13:59;20.30;99.90
18898;DHT22;9581;49.484;8.556;2023-08-17T00:16:27;20.40;99.90
18898;DHT22;9581;49.484;8.556;2023-08-17T00:18:55;20.50;99.90
18898;DHT22;9581;49.484;8.556;2023-08-17T00:21:21;20.50;99.90
18898;DHT22;9581;49.484;8.556;2023-08-17T00:23:48;20.70;99.90
18898;DHT22;9581;49.484;8.556;2023-08-17T00:26:15;20.90;99.90
18898;DHT22;9581;49.484;8.556;2023-08-17T00:28:42;20.80;99.90
18898;DHT22;9581;49.484;8.556;2023-08-17T00:31:09;20.80;99.90
18898;DHT22;9581;49.484;8.556;2023-08-17T00:33:36;20.60;99.90
18898;DHT22;9581;49.484;8.556;2023-08-17T00:36:05;20.50;99.90
18898;DHT22;9581;49.484;8.556;2023-08-17T00:38:31;20.50;99.90
18898;DHT22;9581;49.484;8.556;2023-08-17T00:40:58;20.40;99.90
18898;DHT22;9581;49.484;8.556;2023-08-17T00:43:25;20.40;99.90
18898;DHT22;9581;49.484;8.556;2023-08-17T00:45:52;20.30;99.90
18898;DHT22;9581;49.484;8.556;2023-08-17T00:48:19;20.30;99.90
18898;DHT22;9581;49.484;8.556;2023-08-17T00:50:48;20.30;99.90
18898;DHT22;9581;49.484;8.556;2023-08-17T00:53:16;20.40;99.90
18898;DHT22;9581;49.484;8.556;2023-08-17T00:55:43;20.50;99.90
18898;DHT22;9581;49.484;8.556;2023-08-17T00:58:11;20.40;99.90
18898;DHT22;9581;49.484;8.556;2023-08-17T01:00:39;20.40;99.90
18898;DHT22;9581;49.484;8.556;2023-08-17T01:03:06;20.50;99.90
18898;DHT22;9581;49.484;8.556;2023-08-17T01:05:33;20.40;99.90
18898;DHT22;9581;49.484;8.556;2023-08-17T01:08:00;20.40;99.90
18898;DHT22;9581;49.484;8.556;2023-08-17T01:10:30;20.30;99.90
18898;DHT22;9581;49.484;8.556;2023-08-17T01:13:05;20.20;99.90
18898;DHT22;9581;49.484;8.556;2023-08-17T01:15:36;20.20;99.90
18898;DHT22;9581;49.484;8.556;2023-08-17T01:18:09;20.30;99.90
18898;DHT22;9581;49.484;8.556;2023-08-17T01:20:37;20.20;99.90
18898;DHT22;9581;49.484;8.556;2023-08-17T01:23:06;20.20;99.90
18898;DHT22;9581;49.484;8.556;2023-08-17T01:25:33;20.10;99.90
18898;DHT22;9581;49.484;8.556;2023-08-17T01:28:02;20.10;99.90
18898;DHT22;9581;49.484;8.556;2023-08-17T01:30:33;20.10;99.90
18898;DHT22;9581;49.484;8.556;2023-08-17T01:33:03;20.10;99.90
18898;DHT22;9581;49.484;8.556;2023-08-17T01:35:38;20.10;99.90
18898;DHT22;9581;49.484;8.556;2023-08-17T01:38:12;20.00;99.90
18898;DHT22;9581;49.484;8.556;2023-08-17T01:40:41;20.00;99.90
18898;DHT22;9581;49.484;8.556;2023-08-17T01:43:09;20.10;99.90
18898;DHT22;9581;49.484;8.556;2023-08-17T01:45:36;20.30;99.90
18898;DHT22;9581;49.484;8.556;2023-08-17T01:48:04;20.30;99.90
18898;DHT22;9581;49.484;8.556;2023-08-17T01:50:31;20.30;99.90
18898;DHT22;9581;49.484;8.556;2023-08-17T01:52:57;20.20;99.90
18898;DHT22;9581;49.484;8.556;2023-08-17T01:55:26;20.20;99.90
18898;DHT22;9581;49.484;8.556;2023-08-17T01:57:53;20.20;99.90
18898;DHT22;9581;49.484;8.556;2023-08-17T02:00:20;20.00;99.90
18898;DHT22;9581;49.484;8.556;2023-08-17T02:02:47;20.10;99.90
18898;DHT22;9581;49.484;8.556;2023-08-17T02:05:13;20.00;99.90
18898;DHT22;9581;49.484;8.556;2023-08-17T02:07:40;20.00;99.90
18898;DHT22;9581;49.484;8.556;2023-08-17T02:10:07;20.00;99.90
18898;DHT22;9581;49.484;8.556;2023-08-17T02:12:36;20.30;99.90
18898;DHT22;9581;49.484;8.556;2023-08-17T02:15:03;20.50;99.90
18898;DHT22;9581;49.484;8.556;2023-08-17T02:17:30;20.60;99.90
18898;DHT22;9581;49.484;8.556;2023-08-17T02:19:57;20.60;99.90
18898;DHT22;9581;49.484;8.556;2023-08-17T02:22:23;20.60;99.90
18898;DHT22;9581;49.484;8.556;2023-08-17T02:24:50;20.30;99.90
18898;DHT22;9581;49.484;8.556;2023-08-17T02:27:17;20.10;99.90
18898;DHT22;9581;49.484;8.556;2023-08-17T02:29:45;20.20;99.90
18898;DHT22;9581;49.484;8.556;2023-08-17T02:32:12;20.50;99.90
18898;DHT22;9581;49.484;8.556;2023-08-17T02:34:38;20.20;99.90
18898;DHT22;9581;49.484;8.556;2023-08-17T02:37:05;20.00;99.90
18898;DHT22;9581;49.484;8.556;2023-08-17T02:39:32;19.90;99.90
18898;DHT22;9581;49.484;8.556;2023-08-17T02:41:59;19.80;99.90
18898;DHT22;9581;49.484;8.556;2023-08-17T02:44:26;19.80;99.90
18898;DHT22;9581;49.484;8.556;2023-08-17T02:46:55;19.80;99.90
18898;DHT22;9581;49.484;8.556;2023-08-17T02:49:22;19.80;99.90
18898;DHT22;9581;49.484;8.556;2023-08-17T02:51:48;19.60;99.90
18898;DHT22;9581;49.484;8.556;2023-08-17T02:54:15;19.70;99.90
18898;DHT22;9581;49.484;8.556;2023-08-17T02:56:42;19.50;99.90
18898;DHT22;9581;49.484;8.556;2023-08-17T02:59:09;19.60;99.90
18898;DHT22;9581;49.484;8.556;2023-08-17T03:01:35;19.50;99.90
18898;DHT22;9581;49.484;8.556;2023-08-17T03:04:04;19.50;99.90
18898;DHT22;9581;49.484;8.556;2023-08-17T03:06:31;19.50;99.90
18898;DHT22;9581;49.484;8.556;2023-08-17T03:08:57;19.40;99.90
18898;DHT22;9581;49.484;8.556;2023-08-17T03:11:24;19.40;99.90
18898;DHT22;9581;49.484;8.556;2023-08-17T03:13:51;19.40;99.90
18898;DHT22;9581;49.484;8.556;2023-08-17T03:16:19;19.40;99.90
18898;DHT22;9581;49.484;8.556;2023-08-17T03:18:46;19.50;99.90
18898;DHT22;9581;49.484;8.556;2023-08-17T03:21:15;19.60;99.90
18898;DHT22;9581;49.484;8.556;2023-08-17T03:23:43;19.70;99.90
18898;DHT22;9581;49.484;8.556;2023-08-17T03:26:09;19.60;99.90
18898;DHT22;9581;49.484;8.556;2023-08-17T03:28:36;19.70;99.90
18898;DHT22;9581;49.484;8.556;2023-08-17T03:31:03;19.50;99.90
18898;DHT22;9581;49.484;8.556;2023-08-17T03:33:30;19.50;99.90
18898;DHT22;9581;49.484;8.556;2023-08-17T03:35:57;19.50;99.90
18898;DHT22;9581;49.484;8.556;2023-08-17T03:38:25;19.50;99.90
18898;DHT22;9581;49.484;8.556;2023-08-17T03:40:52;19.50;99.90
18898;DHT22;9581;49.484;8.556;2023-08-17T03:43:19;19.40;99.90
18898;DHT22;9581;49.484;8.556;2023-08-17T03:45:46;19.50;99.90
18898;DHT22;9581;49.484;8.556;2023-08-17T03:48:12;19.60;99.90
18898;DHT22;9581;49.484;8.556;2023-08-17T03:50:39;19.40;99.90
18898;DHT22;9581;49.484;8.556;2023-08-17T03:53:06;19.40;99.90
18898;DHT22;9581;49.484;8.556;2023-08-17T03:55:34;19.40;99.90
18898;DHT22;9581;49.484;8.556;2023-08-17T03:58:01;19.60;99.90
18898;DHT22;9581;49.484;8.556;2023-08-17T04:00:28;19.60;99.90
18898;DHT22;9581;49.484;8.556;2023-08-17T04:02:54;19.50;99.90
18898;DHT22;9581;49.484;8.556;2023-08-17T04:05:21;19.70;99.90
18898;DHT22;9581;49.484;8.556;2023-08-17T04:07:48;19.60;99.90
18898;DHT22;9581;49.484;8.556;2023-08-17T04:10:15;19.40;99.90
18898;DHT22;9581;49.484;8.556;2023-08-17T04:12:43;19.40;99.90
18898;DHT22;9581;49.484;8.556;2023-08-17T04:15:10;19.10;99.90
18898;DHT22;9581;49.484;8.556;2023-08-17T04:17:36;19.10;99.90
18898;DHT22;9581;49.484;8.556;2023-08-17T04:20:04;18.90;99.90
18898;DHT22;9581;49.484;8.556;2023-08-17T04:22:31;19.00;99.90
18898;DHT22;9581;49.484;8.556;2023-08-17T04:24:58;19.10;99.90
18898;DHT22;9581;49.484;8.556;2023-08-17T04:27:25;19.20;99.90
18898;DHT22;9581;49.484;8.556;2023-08-17T04:29:53;19.10;99.90
18898;DHT22;9581;49.484;8.556;2023-08-17T04:32:19;19.00;99.90
18898;DHT22;9581;49.484;8.556;2023-08-17T04:34:46;18.90;99.90
18898;DHT22;9581;49.484;8.556;2023-08-17T04:37:14;18.90;99.90
18898;DHT22;9581;49.484;8.556;2023-08-17T04:39:40;19.00;99.90
18898;DHT22;9581;49.484;8.556;2023-08-17T04:42:09;19.00;99.90
18898;DHT22;9581;49.484;8.556;2023-08-17T04:44:35;19.00;99.90
18898;DHT22;9581;49.484;8.556;2023-08-17T04:47:04;18.90;99.90
18898;DHT22;9581;49.484;8.556;2023-08-17T04:49:30;19.00;99.90
18898;DHT22;9581;49.484;8.556;2023-08-17T04:51:57;19.00;99.90
18898;DHT22;9581;49.484;8.556;2023-08-17T04:54:24;18.90;99.90
18898;DHT22;9581;49.484;8.556;2023-08-17T04:56:51;18.90;99.90
18898;DHT22;9581;49.484;8.556;2023-08-17T04:59:18;18.80;99.90
18898;DHT22;9581;49.484;8.556;2023-08-17T05:01:44;18.90;99.90
18898;DHT22;9581;49.484;8.556;2023-08-17T05:04:12;19.00;99.90
18898;DHT22;9581;49.484;8.556;2023-08-17T05:06:39;19.20;99.90
18898;DHT22;9581;49.484;8.556;2023-08-17T05:09:06;19.10;99.90
18898;DHT22;9581;49.484;8.556;2023-08-17T05:11:33;19.00;99.90
18898;DHT22;9581;49.484;8.556;2023-08-17T05:14:00;19.00;99.90
18898;DHT22;9581;49.484;8.556;2023-08-17T05:16:26;19.00;99.90
18898;DHT22;9581;49.484;8.556;2023-08-17T05:18:53;19.10;99.90
18898;DHT22;9581;49.484;8.556;2023-08-17T05:21:22;19.10;99.90
18898;DHT22;9581;49.484;8.556;2023-08-17T05:23:49;19.10;99.90
18898;DHT22;9581;49.484;8.556;2023-08-17T05:26:16;19.10;99.90
18898;DHT22;9581;49.484;8.556;2023-08-17T05:28:43;19.00;99.90
18898;DHT22;9581;49.484;8.556;2023-08-17T05:31:10;19.10;99.90
18898;DHT22;9581;49.484;8.556;2023-08-17T05:33:37;19.30;99.90
18898;DHT22;9581;49.484;8.556;2023-08-17T05:36:06;19.40;99.90
18898;DHT22;9581;49.484;8.556;2023-08-17T05:38:34;19.40;99.90
18898;DHT22;9581;49.484;8.556;2023-08-17T05:41:01;19.40;99.90
18898;DHT22;9581;49.484;8.556;2023-08-17T05:43:28;19.20;99.90
18898;DHT22;9581;49.484;8.556;2023-08-17T05:45:57;19.40;99.90
18898;DHT22;9581;49.484;8.556;2023-08-17T05:48:23;19.30;99.90
18898;DHT22;9581;49.484;8.556;2023-08-17T05:50:50;19.40;99.90
18898;DHT22;9581;49.484;8.556;2023-08-17T05:53:17;19.50;99.90
18898;DHT22;9581;49.484;8.556;2023-08-17T05:55:45;19.50;99.90
18898;DHT22;9581;49.484;8.556;2023-08-17T05:58:12;19.50;99.90
18898;DHT22;9581;49.484;8.556;2023-08-17T06:00:39;19.60;99.90
18898;DHT22;9581;49.484;8.556;2023-08-17T06:03:05;19.60;99.90
18898;DHT22;9581;49.484;8.556;2023-08-17T06:05:32;19.70;99.90
18898;DHT22;9581;49.484;8.556;2023-08-17T06:08:01;19.70;99.90
18898;DHT22;9581;49.484;8.556;2023-08-17T06:10:27;19.60;99.90
18898;DHT22;9581;49.484;8.556;2023-08-17T06:12:56;19.60;99.90
18898;DHT22;9581;49.484;8.556;2023-08-17T06:15:23;19.50;99.90
18898;DHT22;9581;49.484;8.556;2023-08-17T06:17:50;19.50;99.90
18898;DHT22;9581;49.484;8.556;2023-08-17T06:20:18;19.50;99.90
18898;DHT22;9581;49.484;8.556;2023-08-17T06:22:46;19.60;99.90
18898;DHT22;9581;49.484;8.556;2023-08-17T06:25:13;19.80;99.90
18898;DHT22;9581;49.484;8.556;2023-08-17T06:27:41;19.90;99.90
18898;DHT22;9581;49.484;8.556;2023-08-17T06:30:11;19.70;99.90
18898;DHT22;9581;49.484;8.556;2023-08-17T06:32:38;19.80;99.90
18898;DHT22;9581;49.484;8.556;2023-08-17T06:35:06;19.70;99.90
18898;DHT22;9581;49.484;8.556;2023-08-17T06:37:33;19.80;99.90
18898;DHT22;9581;49.484;8.556;2023-08-17T06:40:00;20.00;99.90
18898;DHT22;9581;49.484;8.556;2023-08-17T06:42:27;19.90;99.90
18898;DHT22;9581;49.484;8.556;2023-08-17T06:44:54;20.00;99.90
18898;DHT22;9581;49.484;8.556;2023-08-17T06:47:23;20.00;99.90
18898;DHT22;9581;49.484;8.556;2023-08-17T06:49:49;20.00;99.90
18898;DHT22;9581;49.484;8.556;2023-08-17T06:52:16;19.90;99.90
18898;DHT22;9581;49.484;8.556;2023-08-17T06:54:43;20.00;99.90
18898;DHT22;9581;49.484;8.556;2023-08-17T06:57:10;20.10;99.90
18898;DHT22;9581;49.484;8.556;2023-08-17T06:59:36;20.00;99.90
18898;DHT22;9581;49.484;8.556;2023-08-17T07:02:03;20.10;99.90
18898;DHT22;9581;49.484;8.556;2023-08-17T07:04:31;20.20;99.90
18898;DHT22;9581;49.484;8.556;2023-08-17T07:06:58;20.10;99.90
18898;DHT22;9581;49.484;8.556;2023-08-17T07:09:25;20.10;99.90
18898;DHT22;9581;49.484;8.556;2023-08-17T07:11:53;20.10;99.90
18898;DHT22;9581;49.484;8.556;2023-08-17T07:14:20;20.00;99.90
18898;DHT22;9581;49.484;8.556;2023-08-17T07:16:47;20.20;99.90
18898;DHT22;9581;49.484;8.556;2023-08-17T07:19:14;20.40;99.90
18898;DHT22;9581;49.484;8.556;2023-08-17T07:21:42;20.30;99.90
18898;DHT22;9581;49.484;8.556;2023-08-17T07:24:12;20.40;99.90
18898;DHT22;9581;49.484;8.556;2023-08-17T07:26:39;20.50;99.90
18898;DHT22;9581;49.484;8.556;2023-08-17T07:29:06;20.50;99.90
18898;DHT22;9581;49.484;8.556;2023-08-17T07:31:33;20.40;99.90
18898;DHT22;9581;49.484;8.556;2023-08-17T07:34:03;20.50;99.90
18898;DHT22;9581;49.484;8.556;2023-08-17T07:36:30;20.70;99.90
18898;DHT22;9581;49.484;8.556;2023-08-17T07:38:58;21.10;99.90
18898;DHT22;9581;49.484;8.556;2023-08-17T07:41:25;21.00;99.90
18898;DHT22;9581;49.484;8.556;2023-08-17T07:43:52;21.00;99.90
18898;DHT22;9581;49.484;8.556;2023-08-17T07:46:19;21.10;99.90
18898;DHT22;9581;49.484;8.556;2023-08-17T07:48:46;21.30;99.90
18898;DHT22;9581;49.484;8.556;2023-08-17T07:51:13;21.30;99.90
18898;DHT22;9581;49.484;8.556;2023-08-17T07:53:39;21.40;99.90
18898;DHT22;9581;49.484;8.556;2023-08-17T07:56:07;21.50;99.90
18898;DHT22;9581;49.484;8.556;2023-08-17T07:58:34;21.60;99.90
18898;DHT22;9581;49.484;8.556;2023-08-17T08:01:01;21.60;99.90
18898;DHT22;9581;49.484;8.556;2023-08-17T08:03:28;21.50;99.90
18898;DHT22;9581;49.484;8.556;2023-08-17T08:05:54;21.60;99.90
18898;DHT22;9581;49.484;8.556;2023-08-17T08:08:21;21.80;99.90
18898;DHT22;9581;49.484;8.556;2023-08-17T08:10:48;21.90;99.90
18898;DHT22;9581;49.484;8.556;2023-08-17T08:13:16;21.70;99.90
18898;DHT22;9581;49.484;8.556;2023-08-17T08:15:42;21.80;99.90
18898;DHT22;9581;49.484;8.556;2023-08-17T08:18:09;22.70;99.90
18898;DHT22;9581;49.484;8.556;2023-08-17T08:20:37;23.60;99.90
18898;DHT22;9581;49.484;8.556;2023-08-17T08:23:04;24.90;99.90
18898;DHT22;9581;49.484;8.556;2023-08-17T08:25:31;25.50;99.90
18898;DHT22;9581;49.484;8.556;2023-08-17T08:27:58;25.60;99.90
18898;DHT22;9581;49.484;8.556;2023-08-17T08:30:26;26.20;99.90
18898;DHT22;9581;49.484;8.556;2023-08-17T08:32:53;26.60;99.90
18898;DHT22;9581;49.484;8.556;2023-08-17T08:35:21;25.00;99.90
18898;DHT22;9581;49.484;8.556;2023-08-17T08:37:49;24.10;99.90
18898;DHT22;9581;49.484;8.556;2023-08-17T08:40:17;23.90;99.90
18898;DHT22;9581;49.484;8.556;2023-08-17T08:42:44;23.60;99.90
18898;DHT22;9581;49.484;8.556;2023-08-17T08:45:11;25.30;99.90
18898;DHT22;9581;49.484;8.556;2023-08-17T08:47:40;25.20;99.90
18898;DHT22;9581;49.484;8.556;2023-08-17T08:50:09;24.60;99.90
18898;DHT22;9581;49.484;8.556;2023-08-17T08:52:42;25.20;99.90
18898;DHT22;9581;49.484;8.556;2023-08-17T08:55:12;25.10;99.90
18898;DHT22;9581;49.484;8.556;2023-08-17T08:57:42;24.50;99.90
18898;DHT22;9581;49.484;8.556;2023-08-17T09:00:11;24.40;99.90
18898;DHT22;9581;49.484;8.556;2023-08-17T09:02:39;24.30;99.90
18898;DHT22;9581;49.484;8.556;2023-08-17T09:05:09;24.50;99.90
18898;DHT22;9581;49.484;8.556;2023-08-17T09:07:37;24.60;99.90
18898;DHT22;9581;49.484;8.556;2023-08-17T09:10:05;24.50;99.90
18898;DHT22;9581;49.484;8.556;2023-08-17T09:12:32;24.70;99.90
18898;DHT22;9581;49.484;8.556;2023-08-17T09:14:59;24.90;99.90
18898;DHT22;9581;49.484;8.556;2023-08-17T09:17:26;25.10;99.90
18898;DHT22;9581;49.484;8.556;2023-08-17T09:19:55;25.30;99.90
18898;DHT22;9581;49.484;8.556;2023-08-17T09:22:25;25.30;99.90
18898;DHT22;9581;49.484;8.556;2023-08-17T09:24:52;25.30;99.90
18898;DHT22;9581;49.484;8.556;2023-08-17T09:27:20;25.00;99.90
18898;DHT22;9581;49.484;8.556;2023-08-17T09:29:47;24.70;99.90
18898;DHT22;9581;49.484;8.556;2023-08-17T09:32:14;24.70;99.90
18898;DHT22;9581;49.484;8.556;2023-08-17T09:34:43;24.70;99.90
18898;DHT22;9581;49.484;8.556;2023-08-17T09:37:13;24.80;99.90
18898;DHT22;9581;49.484;8.556;2023-08-17T09:39:39;24.60;99.90
18898;DHT22;9581;49.484;8.556;2023-08-17T09:42:06;25.00;99.90
18898;DHT22;9581;49.484;8.556;2023-08-17T09:44:33;24.90;99.90
18898;DHT22;9581;49.484;8.556;2023-08-17T09:47:01;24.90;99.90
18898;DHT22;9581;49.484;8.556;2023-08-17T09:49:31;24.80;99.90
18898;DHT22;9581;49.484;8.556;2023-08-17T09:51:59;25.00;99.90
18898;DHT22;9581;49.484;8.556;2023-08-17T09:54:28;24.50;99.90
18898;DHT22;9581;49.484;8.556;2023-08-17T09:56:57;24.60;99.90
18898;DHT22;9581;49.484;8.556;2023-08-17T09:59:24;24.80;99.90
18898;DHT22;9581;49.484;8.556;2023-08-17T10:01:51;25.00;99.90
18898;DHT22;9581;49.484;8.556;2023-08-17T10:04:21;25.10;99.90
18898;DHT22;9581;49.484;8.556;2023-08-17T10:06:51;25.30;99.90
18898;DHT22;9581;49.484;8.556;2023-08-17T10:09:24;25.20;99.90
18898;DHT22;9581;49.484;8.556;2023-08-17T10:11:55;25.30;99.90
18898;DHT22;9581;49.484;8.556;2023-08-17T10:14:28;25.30;99.90
18898;DHT22;9581;49.484;8.556;2023-08-17T10:17:00;25.30;99.90
18898;DHT22;9581;49.484;8.556;2023-08-17T10:19:36;25.50;99.90
18898;DHT22;9581;49.484;8.556;2023-08-17T10:22:16;25.60;99.90
18898;DHT22;9581;49.484;8.556;2023-08-17T10:24:44;25.60;99.90
18898;DHT22;9581;49.484;8.556;2023-08-17T10:27:13;25.30;99.90
18898;DHT22;9581;49.484;8.556;2023-08-17T10:29:40;25.60;99.90
18898;DHT22;9581;49.484;8.556;2023-08-17T10:32:08;26.00;99.90
18898;DHT22;9581;49.484;8.556;2023-08-17T10:34:36;26.00;99.90
18898;DHT22;9581;49.484;8.556;2023-08-17T10:37:04;25.90;99.90
18898;DHT22;9581;49.484;8.556;2023-08-17T10:39:31;26.20;99.90
18898;DHT22;9581;49.484;8.556;2023-08-17T10:42:00;26.20;99.90
18898;DHT22;9581;49.484;8.556;2023-08-17T10:44:42;26.30;99.90
18898;DHT22;9581;49.484;8.556;2023-08-17T10:47:20;26.50;99.90
18898;DHT22;9581;49.484;8.556;2023-08-17T10:49:48;26.50;99.90
18898;DHT22;9581;49.484;8.556;2023-08-17T10:52:18;26.40;99.90
18898;DHT22;9581;49.484;8.556;2023-08-17T10:54:51;26.30;99.90
18898;DHT22;9581;49.484;8.556;2023-08-17T10:57:31;26.50;99.90
18898;DHT22;9581;49.484;8.556;2023-08-17T11:00:20;26.50;99.90
18898;DHT22;9581;49.484;8.556;2023-08-17T11:02:57;26.80;99.90
18898;DHT22;9581;49.484;8.556;2023-08-17T11:05:37;26.90;99.90
18898;DHT22;9581;49.484;8.556;2023-08-17T11:08:05;26.90;99.90
18898;DHT22;9581;49.484;8.556;2023-08-17T11:10:32;26.90;99.90
18898;DHT22;9581;49.484;8.556;2023-08-17T11:12:59;26.90;99.90
18898;DHT22;9581;49.484;8.556;2023-08-17T11:15:35;27.10;99.90
18898;DHT22;9581;49.484;8.556;2023-08-17T11:18:05;26.90;99.90
18898;DHT22;9581;49.484;8.556;2023-08-17T11:20:32;26.90;99.90
18898;DHT22;9581;49.484;8.556;2023-08-17T11:22:59;27.10;99.90
18898;DHT22;9581;49.484;8.556;2023-08-17T11:25:27;27.30;99.90
18898;DHT22;9581;49.484;8.556;2023-08-17T11:27:54;27.30;99.90
18898;DHT22;9581;49.484;8.556;2023-08-17T11:30:21;27.20;99.90
18898;DHT22;9581;49.484;8.556;2023-08-17T11:32:50;27.20;99.90
18898;DHT22;9581;49.484;8.556;2023-08-17T11:35:17;27.30;99.90
18898;DHT22;9581;49.484;8.556;2023-08-17T11:37:44;27.50;99.90
18898;DHT22;9581;49.484;8.556;2023-08-17T11:40:11;27.60;99.90
18898;DHT22;9581;49.484;8.556;2023-08-17T11:42:38;27.50;99.90
18898;DHT22;9581;49.484;8.556;2023-08-17T11:45:06;27.50;99.90
18898;DHT22;9581;49.484;8.556;2023-08-17T11:47:34;27.50;99.90
18898;DHT22;9581;49.484;8.556;2023-08-17T11:50:03;27.80;99.90
18898;DHT22;9581;49.484;8.556;2023-08-17T11:52:31;27.80;99.90
18898;DHT22;9581;49.484;8.556;2023-08-17T11:54:58;28.00;99.90
18898;DHT22;9581;49.484;8.556;2023-08-17T11:57:25;27.90;99.90
18898;DHT22;9581;49.484;8.556;2023-08-17T11:59:53;28.00;99.90
18898;DHT22;9581;49.484;8.556;2023-08-17T12:02:21;28.30;99.90
18898;DHT22;9581;49.484;8.556;2023-08-17T12:04:48;28.00;99.90
18898;DHT22;9581;49.484;8.556;2023-08-17T12:07:16;27.90;99.90
18898;DHT22;9581;49.484;8.556;2023-08-17T12:09:44;27.60;99.90
18898;DHT22;9581;49.484;8.556;2023-08-17T12:12:11;27.80;99.90
18898;DHT22;9581;49.484;8.556;2023-08-17T12:14:41;27.50;99.90
18898;DHT22;9581;49.484;8.556;2023-08-17T12:17:13;27.50;99.90
18898;DHT22;9581;49.484;8.556;2023-08-17T12:19:40;27.30;99.90
18898;DHT22;9581;49.484;8.556;2023-08-17T12:22:07;26.90;99.90
18898;DHT22;9581;49.484;8.556;2023-08-17T12:24:35;26.90;99.90
18898;DHT22;9581;49.484;8.556;2023-08-17T12:27:05;26.80;99.90
18898;DHT22;9581;49.484;8.556;2023-08-17T12:29:31;26.80;99.90
18898;DHT22;9581;49.484;8.556;2023-08-17T12:31:58;26.70;99.90
18898;DHT22;9581;49.484;8.556;2023-08-17T12:34:25;26.60;99.90
18898;DHT22;9581;49.484;8.556;2023-08-17T12:36:52;26.70;99.90
18898;DHT22;9581;49.484;8.556;2023-08-17T12:39:19;26.80;99.90
18898;DHT22;9581;49.484;8.556;2023-08-17T12:41:47;26.60;99.90
18898;DHT22;9581;49.484;8.556;2023-08-17T12:44:14;26.60;99.90
18898;DHT22;9581;49.484;8.556;2023-08-17T12:46:41;26.70;99.90
18898;DHT22;9581;49.484;8.556;2023-08-17T12:49:08;26.70;99.90
18898;DHT22;9581;49.484;8.556;2023-08-17T12:51:34;26.60;99.90
18898;DHT22;9581;49.484;8.556;2023-08-17T12:54:01;26.60;99.90
18898;DHT22;9581;49.484;8.556;2023-08-17T12:56:28;26.50;99.90
18898;DHT22;9581;49.484;8.556;2023-08-17T12:58:56;26.90;99.90
18898;DHT22;9581;49.484;8.556;2023-08-17T13:01:23;26.90;99.90
18898;DHT22;9581;49.484;8.556;2023-08-17T13:03:50;27.00;99.90
18898;DHT22;9581;49.484;8.556;2023-08-17T13:06:16;26.70;99.90
18898;DHT22;9581;49.484;8.556;2023-08-17T13:08:43;26.60;99.90
18898;DHT22;9581;49.484;8.556;2023-08-17T13:11:10;26.80;99.90
18898;DHT22;9581;49.484;8.556;2023-08-17T13:13:37;26.90;99.90
18898;DHT22;9581;49.484;8.556;2023-08-17T13:16:05;26.70;99.90
18898;DHT22;9581;49.484;8.556;2023-08-17T13:18:32;26.50;99.90
18898;DHT22;9581;49.484;8.556;2023-08-17T13:20:59;26.30;99.90
18898;DHT22;9581;49.484;8.556;2023-08-17T13:23:25;26.50;99.90
18898;DHT22;9581;49.484;8.556;2023-08-17T13:25:52;26.50;99.90
18898;DHT22;9581;49.484;8.556;2023-08-17T13:28:19;26.10;99.90
18898;DHT22;9581;49.484;8.556;2023-08-17T13:30:46;26.00;99.90
18898;DHT22;9581;49.484;8.556;2023-08-17T13:33:14;26.00;99.90
18898;DHT22;9581;49.484;8.556;2023-08-17T13:35:42;26.00;99.90
18898;DHT22;9581;49.484;8.556;2023-08-17T13:38:09;25.80;99.90
18898;DHT22;9581;49.484;8.556;2023-08-17T13:40:36;26.00;99.90
18898;DHT22;9581;49.484;8.556;2023-08-17T13:43:04;26.00;99.90
18898;DHT22;9581;49.484;8.556;2023-08-17T13:45:37;26.00;99.90
18898;DHT22;9581;49.484;8.556;2023-08-17T13:48:05;26.00;99.90
18898;DHT22;9581;49.484;8.556;2023-08-17T13:50:33;25.70;99.90
18898;DHT22;9581;49.484;8.556;2023-08-17T13:53:00;25.70;99.90
18898;DHT22;9581;49.484;8.556;2023-08-17T13:55:27;25.80;99.90
18898;DHT22;9581;49.484;8.556;2023-08-17T13:57:54;25.90;99.90
18898;DHT22;9581;49.484;8.556;2023-08-17T14:00:21;25.80;99.90
18898;DHT22;9581;49.484;8.556;2023-08-17T14:02:48;25.80;99.90
18898;DHT22;9581;49.484;8.556;2023-08-17T14:05:15;26.00;99.90
18898;DHT22;9581;49.484;8.556;2023-08-17T14:07:43;26.20;99.90
18898;DHT22;9581;49.484;8.556;2023-08-17T14:10:10;26.60;99.90
18898;DHT22;9581;49.484;8.556;2023-08-17T14:12:37;27.20;99.90
18898;DHT22;9581;49.484;8.556;2023-08-17T14:15:05;27.70;99.90
18898;DHT22;9581;49.484;8.556;2023-08-17T14:17:32;28.10;99.90
18898;DHT22;9581;49.484;8.556;2023-08-17T14:19:58;28.40;99.90
18898;DHT22;9581;49.484;8.556;2023-08-17T14:22:25;28.60;99.90
18898;DHT22;9581;49.484;8.556;2023-08-17T14:24:53;28.80;99.90
18898;DHT22;9581;49.484;8.556;2023-08-17T14:27:20;28.90;99.90
18898;DHT22;9581;49.484;8.556;2023-08-17T14:29:47;29.20;99.90
18898;DHT22;9581;49.484;8.556;2023-08-17T14:32:14;29.10;99.90
18898;DHT22;9581;49.484;8.556;2023-08-17T14:34:40;28.90;99.90
18898;DHT22;9581;49.484;8.556;2023-08-17T14:37:07;28.80;99.90
18898;DHT22;9581;49.484;8.556;2023-08-17T14:39:34;28.80;99.90
18898;DHT22;9581;49.484;8.556;2023-08-17T14:42:02;29.20;99.90
18898;DHT22;9581;49.484;8.556;2023-08-17T14:44:29;29.00;99.90
18898;DHT22;9581;49.484;8.556;2023-08-17T14:46:55;29.00;99.90
18898;DHT22;9581;49.484;8.556;2023-08-17T14:49:22;29.20;99.90
18898;DHT22;9581;49.484;8.556;2023-08-17T14:51:49;29.30;99.90
18898;DHT22;9581;49.484;8.556;2023-08-17T14:54:16;29.30;99.90
18898;DHT22;9581;49.484;8.556;2023-08-17T14:56:42;29.30;99.90
18898;DHT22;9581;49.484;8.556;2023-08-17T14:59:12;29.30;99.90
18898;DHT22;9581;49.484;8.556;2023-08-17T15:01:39;29.90;99.90
18898;DHT22;9581;49.484;8.556;2023-08-17T15:04:06;30.30;99.90
18898;DHT22;9581;49.484;8.556;2023-08-17T15:06:33;30.30;99.90
18898;DHT22;9581;49.484;8.556;2023-08-17T15:08:59;30.40;99.90
18898;DHT22;9581;49.484;8.556;2023-08-17T15:11:28;30.30;99.90
18898;DHT22;9581;49.484;8.556;2023-08-17T15:13:55;30.40;99.90
18898;DHT22;9581;49.484;8.556;2023-08-17T15:16:23;30.20;99.90
18898;DHT22;9581;49.484;8.556;2023-08-17T15:18:53;29.90;99.90
18898;DHT22;9581;49.484;8.556;2023-08-17T15:21:20;30.00;99.90
18898;DHT22;9581;49.484;8.556;2023-08-17T15:23:46;30.40;99.90
18898;DHT22;9581;49.484;8.556;2023-08-17T15:26:13;30.70;99.90
18898;DHT22;9581;49.484;8.556;2023-08-17T15:28:41;31.00;99.90
18898;DHT22;9581;49.484;8.556;2023-08-17T15:31:07;31.00;99.90
18898;DHT22;9581;49.484;8.556;2023-08-17T15:33:39;30.60;99.90
18898;DHT22;9581;49.484;8.556;2023-08-17T15:36:05;30.50;99.90
18898;DHT22;9581;49.484;8.556;2023-08-17T15:38:32;30.40;99.90
18898;DHT22;9581;49.484;8.556;2023-08-17T15:40:59;30.70;99.90
18898;DHT22;9581;49.484;8.556;2023-08-17T15:43:26;30.70;99.90
18898;DHT22;9581;49.484;8.556;2023-08-17T15:45:52;30.70;99.90
18898;DHT22;9581;49.484;8.556;2023-08-17T15:48:19;30.60;99.90